createdAt,value
2019-04-10T00:01:42.524Z,55.00
2019-04-10T00:04:14.655Z,56.39
2019-04-10T00:06:44.304Z,55.85
2019-04-10T00:09:14.800Z,55.86
2019-04-10T00:11:45.136Z,56.26
2019-04-10T00:14:15.008Z,57.08
2019-04-10T00:16:45.158Z,56.69
2019-04-10T00:19:15.037Z,56.30
2019-04-10T00:21:45.225Z,56.47
2019-04-10T00:24:15.545Z,56.64
2019-04-10T00:26:45.914Z,56.80
2019-04-10T00:29:16.188Z,57.43
2019-04-10T00:31:49.096Z,57.58
2019-04-10T00:34:18.885Z,57.22
2019-04-10T00:36:49.069Z,57.27
2019-04-10T00:39:18.704Z,57.75
2019-04-10T00:41:48.399Z,57.57
2019-04-10T00:44:17.913Z,57.60
2019-04-10T00:46:48.591Z,58.00
2019-04-10T00:49:19.552Z,58.24
2019-04-10T00:51:49.993Z,58.24
2019-04-10T00:54:20.320Z,57.92
2019-04-10T00:56:50.621Z,57.94
2019-04-10T00:59:20.299Z,58.03
2019-04-10T01:01:50.028Z,58.73
2019-04-10T01:04:20.348Z,58.80
2019-04-10T01:06:52.515Z,59.00
2019-04-10T01:09:22.258Z,59.31
2019-04-10T01:11:52.143Z,59.21
2019-04-10T01:14:21.653Z,58.67
2019-04-10T01:16:51.505Z,58.49
2019-04-10T01:19:21.303Z,58.99
2019-04-10T01:21:50.830Z,59.08
2019-04-10T01:24:20.361Z,59.26
2019-04-10T01:26:49.948Z,59.53
2019-04-10T01:29:19.724Z,59.61
2019-04-10T01:31:51.133Z,60.15
2019-04-10T01:34:21.087Z,60.28
2019-04-10T01:36:51.007Z,60.34
2019-04-10T01:39:28.635Z,60.17
2019-04-10T01:41:58.502Z,60.92
2019-04-10T01:44:28.896Z,61.30
2019-04-10T01:46:59.828Z,61.24
2019-04-10T01:49:29.493Z,62.57
2019-04-10T01:51:59.493Z,62.45
2019-04-10T01:54:29.379Z,63.39
2019-04-10T01:56:59.722Z,63.01
2019-04-10T01:59:32.128Z,62.60
2019-04-10T02:02:07.202Z,63.43
2019-04-10T02:04:37.037Z,63.44
2019-04-10T02:07:08.176Z,62.90
2019-04-10T02:09:37.767Z,62.22
2019-04-10T02:12:07.346Z,62.92
2019-04-10T02:14:36.879Z,62.26
2019-04-10T02:17:06.557Z,62.25
2019-04-10T02:19:36.464Z,62.24
2019-04-10T02:22:06.503Z,62.36
2019-04-10T02:24:37.201Z,62.77
2019-04-10T02:27:07.796Z,63.25
2019-04-10T02:29:37.833Z,63.20
2019-04-10T02:32:08.046Z,63.23
2019-04-10T02:34:39.255Z,62.92
2019-04-10T02:37:10.848Z,62.62
2019-04-10T02:39:47.677Z,62.28
2019-04-10T02:42:18.657Z,61.27
2019-04-10T02:44:50.418Z,61.13
2019-04-10T02:47:21.120Z,61.12
2019-04-10T02:49:52.115Z,61.72
2019-04-10T02:52:22.619Z,61.70
2019-04-10T02:54:53.735Z,62.71
2019-04-10T02:57:25.315Z,62.14
2019-04-10T02:59:55.940Z,62.75
2019-04-10T03:02:28.424Z,62.97
2019-04-10T03:04:59.372Z,63.29
2019-04-10T03:07:29.156Z,63.11
2019-04-10T03:10:08.895Z,63.21
2019-04-10T03:12:32.330Z,63.39
2019-04-10T03:15:05.565Z,63.20
2019-04-10T03:17:36.628Z,63.50
2019-04-10T03:20:07.958Z,63.94
2019-04-10T03:22:37.776Z,64.84
2019-04-10T03:25:08.897Z,64.56
2019-04-10T03:27:38.764Z,70.19
2019-04-10T03:30:12.114Z,66.71
2019-04-10T03:32:44.474Z,65.42
2019-04-10T03:35:16.737Z,65.63
2019-04-10T03:37:46.663Z,65.34
2019-04-10T03:40:17.407Z,65.12
2019-04-10T03:42:47.476Z,65.75
2019-04-10T03:45:17.904Z,65.56
2019-04-10T03:47:47.547Z,66.66
2019-04-10T03:50:18.209Z,67.12
2019-04-10T03:52:48.217Z,67.12
2019-04-10T03:55:18.815Z,66.64
2019-04-10T03:57:49.106Z,66.53
2019-04-10T04:00:19.714Z,66.15
2019-04-10T04:02:50.517Z,66.32
2019-04-10T04:05:22.404Z,65.83
2019-04-10T04:07:54.988Z,66.42
2019-04-10T04:10:24.785Z,65.83
2019-04-10T04:12:55.109Z,66.00
2019-04-10T04:15:24.776Z,66.03
2019-04-10T04:17:54.768Z,66.36
2019-04-10T04:20:26.623Z,66.47
2019-04-10T04:22:57.078Z,66.29
2019-04-10T04:25:26.662Z,66.00
2019-04-10T04:27:56.350Z,66.23
2019-04-10T04:30:26.153Z,66.35
2019-04-10T04:32:56.059Z,66.48
2019-04-10T04:35:25.775Z,66.43
2019-04-10T04:37:56.189Z,66.41
2019-04-10T04:40:25.945Z,66.01
2019-04-10T04:42:55.811Z,66.11
2019-04-10T04:45:25.666Z,65.87
2019-04-10T04:47:55.647Z,65.76
2019-04-10T04:50:25.320Z,65.37
2019-04-10T04:52:54.827Z,65.40
2019-04-10T04:55:24.398Z,65.17
2019-04-10T04:57:54.015Z,65.08
2019-04-10T05:00:23.727Z,65.93
2019-04-10T05:02:53.671Z,66.26
2019-04-10T05:05:23.661Z,66.09
2019-04-10T05:07:59.367Z,65.94
2019-04-10T05:10:25.204Z,65.61
2019-04-10T05:12:59.944Z,65.89
2019-04-10T05:15:31.116Z,66.15
2019-04-10T05:18:01.889Z,66.08
2019-04-10T05:20:41.278Z,66.02
2019-04-10T05:23:04.115Z,65.29
2019-04-10T05:25:34.507Z,66.08
2019-04-10T05:28:05.836Z,65.10
2019-04-10T05:30:35.738Z,64.57
2019-04-10T05:33:06.287Z,64.28
2019-04-10T05:35:37.291Z,64.05
2019-04-10T05:38:07.947Z,64.10
2019-04-10T05:40:37.737Z,63.92
2019-04-10T05:43:07.387Z,64.15
2019-04-10T05:45:37.813Z,63.25
2019-04-10T05:48:07.494Z,62.57
2019-04-10T05:50:37.836Z,62.04
2019-04-10T05:53:07.832Z,62.11
2019-04-10T05:55:37.325Z,62.37
2019-04-10T05:58:07.752Z,61.92
2019-04-10T06:00:37.290Z,61.86
2019-04-10T06:03:07.103Z,62.13
2019-04-10T06:05:40.934Z,61.71
2019-04-10T06:08:10.452Z,61.27
2019-04-10T06:10:39.976Z,60.94
2019-04-10T06:13:10.884Z,60.91
2019-04-10T06:15:41.306Z,61.77
2019-04-10T06:18:13.924Z,61.57
2019-04-10T06:20:45.276Z,62.09
2019-04-10T06:23:15.198Z,60.42
2019-04-10T06:25:45.766Z,59.92
2019-04-10T06:28:16.989Z,59.51
2019-04-10T06:30:46.668Z,59.42
2019-04-10T06:33:16.208Z,59.11
2019-04-10T06:35:46.882Z,58.57
2019-04-10T06:38:16.924Z,58.28
2019-04-10T06:40:46.738Z,58.63
2019-04-10T06:43:16.940Z,58.37
2019-04-10T06:45:46.783Z,57.82
2019-04-10T06:48:17.192Z,58.02
2019-04-10T06:50:48.718Z,58.25
2019-04-10T06:53:18.691Z,58.05
2019-04-10T06:55:48.877Z,58.38
2019-04-10T06:58:18.645Z,57.97
2019-04-10T07:00:52.927Z,57.41
2019-04-10T07:03:19.583Z,56.83
2019-04-10T07:06:03.272Z,57.52
2019-04-10T07:08:23.933Z,56.85
2019-04-10T07:11:01.382Z,56.41
2019-04-10T07:13:26.011Z,55.61
2019-04-10T07:15:58.159Z,55.99
2019-04-10T07:18:27.284Z,55.58
2019-04-10T07:21:01.080Z,54.94
2019-04-10T07:23:30.800Z,54.52
2019-04-10T07:26:01.730Z,52.99
2019-04-10T07:28:33.549Z,52.75
2019-04-10T07:31:07.221Z,52.04
2019-04-10T07:33:35.187Z,51.37
2019-04-10T07:36:08.953Z,50.91
2019-04-10T07:38:37.102Z,49.52
2019-04-10T07:41:13.692Z,49.00
2019-04-10T07:43:39.065Z,47.92
2019-04-10T07:46:08.726Z,47.04
2019-04-10T07:48:38.256Z,46.53
2019-04-10T07:51:09.009Z,45.01
2019-04-10T07:53:39.456Z,43.89
2019-04-10T07:56:14.873Z,42.51
2019-04-10T07:58:43.970Z,41.95
2019-04-10T08:01:14.095Z,40.97
2019-04-10T08:03:43.919Z,39.88
2019-04-10T08:06:13.564Z,38.44
2019-04-10T08:08:43.083Z,36.87
2019-04-10T08:11:13.307Z,35.19
2019-04-10T08:13:42.863Z,32.56
2019-04-10T08:16:12.370Z,33.23
2019-04-10T08:18:41.874Z,33.85
2019-04-10T08:21:15.526Z,33.15
2019-04-10T08:23:46.434Z,31.74
2019-04-10T08:26:16.323Z,30.09
2019-04-10T08:28:46.032Z,27.61
2019-04-10T08:31:15.645Z,27.63
2019-04-10T08:33:46.154Z,27.22
2019-04-10T08:36:16.747Z,27.32
2019-04-10T08:38:46.695Z,27.38
2019-04-10T08:41:17.165Z,27.22
2019-04-10T08:43:48.107Z,27.49
2019-04-10T08:46:18.295Z,27.67
2019-04-10T08:48:48.013Z,26.44
2019-04-10T08:51:21.440Z,25.89
2019-04-10T08:53:54.111Z,25.82
2019-04-10T08:56:23.022Z,25.14
2019-04-10T08:58:53.120Z,23.35
2019-04-10T09:01:25.143Z,24.35
2019-04-10T09:03:57.374Z,23.69
2019-04-10T09:06:29.442Z,23.33
2019-04-10T09:08:59.451Z,21.97
2019-04-10T09:11:30.159Z,20.70
2019-04-10T09:14:01.054Z,21.52
2019-04-10T09:16:31.064Z,21.36
2019-04-10T09:19:01.382Z,20.38
2019-04-10T09:21:35.155Z,20.64
2019-04-10T09:24:05.283Z,20.11
2019-04-10T09:26:36.105Z,18.79
2019-04-10T09:29:08.707Z,20.00
2019-04-10T09:31:39.930Z,19.34
2019-04-10T09:34:10.098Z,18.40
2019-04-10T09:36:40.373Z,17.63
2019-04-10T09:39:11.506Z,18.35
2019-04-10T09:41:41.871Z,18.47
2019-04-10T09:44:12.377Z,18.15
2019-04-10T09:46:42.861Z,17.10
2019-04-10T09:49:12.989Z,17.16
2019-04-10T09:51:43.504Z,16.75
2019-04-10T09:54:13.538Z,16.22
2019-04-10T09:56:44.204Z,15.43
2019-04-10T09:59:14.264Z,15.01
2019-04-10T10:01:44.500Z,14.48
2019-04-10T10:04:15.345Z,14.17
2019-04-10T10:06:49.363Z,14.24
2019-04-10T10:09:19.672Z,14.78
2019-04-10T10:11:49.691Z,14.81
2019-04-10T10:14:19.309Z,14.67
2019-04-10T10:16:50.469Z,13.56
2019-04-10T10:19:21.649Z,13.73
2019-04-10T10:21:52.562Z,14.42
2019-04-10T10:24:22.679Z,13.94
2019-04-10T10:26:53.471Z,14.44
2019-04-10T10:29:23.809Z,14.16
2019-04-10T10:31:54.004Z,13.93
2019-04-10T10:34:26.042Z,14.18
2019-04-10T10:36:57.880Z,14.00
2019-04-10T10:39:30.685Z,14.42
2019-04-10T10:41:59.593Z,14.53
2019-04-10T10:44:30.135Z,14.49
2019-04-10T10:47:00.497Z,13.94
2019-04-10T10:49:30.661Z,14.28
2019-04-10T10:52:03.544Z,15.04
2019-04-10T10:54:34.692Z,15.95
2019-04-10T10:57:05.086Z,16.54
2019-04-10T10:59:35.567Z,14.86
2019-04-10T11:02:06.428Z,15.47
2019-04-10T11:04:36.218Z,14.65
2019-04-10T11:07:06.963Z,13.89
2019-04-10T11:09:40.117Z,13.47
2019-04-10T11:12:10.141Z,12.73
2019-04-10T11:14:39.681Z,12.75
2019-04-10T11:17:09.414Z,12.65
2019-04-10T11:19:39.494Z,12.87
2019-04-10T11:22:14.304Z,14.54
2019-04-10T11:24:44.532Z,15.00
2019-04-10T11:27:14.377Z,14.93
2019-04-10T11:29:45.446Z,14.44
2019-04-10T11:32:36.628Z,13.83
2019-04-10T11:35:08.732Z,13.71
2019-04-10T11:37:44.343Z,13.71
2019-04-10T11:40:12.201Z,13.51
2019-04-10T11:42:42.965Z,13.73
2019-04-10T11:45:18.163Z,13.63
2019-04-10T11:47:48.242Z,13.01
2019-04-10T11:50:18.905Z,13.16
2019-04-10T11:52:53.190Z,12.56
2019-04-10T11:55:22.012Z,14.06
2019-04-10T11:57:51.757Z,14.20
2019-04-10T12:00:47.764Z,13.50
2019-04-10T12:03:12.968Z,13.30
2019-04-10T12:05:46.110Z,13.95
2019-04-10T12:08:40.182Z,13.88
2019-04-10T12:13:18.380Z,12.95
2019-04-10T12:15:48.930Z,13.18
2019-04-10T12:18:18.806Z,13.17
2019-04-10T12:20:49.258Z,13.73
2019-04-10T12:23:19.233Z,13.18
2019-04-10T12:25:49.391Z,13.85
2019-04-10T12:28:20.121Z,14.00
2019-04-10T12:30:51.212Z,14.14
2019-04-10T12:33:21.364Z,13.80
2019-04-10T12:35:51.053Z,13.58
2019-04-10T12:38:20.788Z,13.65
2019-04-10T12:40:50.931Z,13.51
2019-04-10T12:43:20.947Z,13.81
2019-04-10T12:45:50.862Z,14.26
2019-04-10T12:48:20.822Z,14.84
2019-04-10T12:50:50.891Z,16.61
2019-04-10T12:53:21.251Z,17.78
2019-04-10T12:55:53.592Z,17.01
2019-04-10T12:58:23.676Z,16.51
2019-04-10T13:00:53.200Z,16.20
2019-04-10T13:03:23.098Z,16.97
2019-04-10T13:05:53.601Z,17.02
2019-04-10T13:08:34.981Z,17.40
2019-04-10T13:10:56.114Z,17.23
2019-04-10T13:13:26.168Z,17.21
2019-04-10T13:15:56.784Z,17.62
2019-04-10T13:18:26.345Z,19.26
2019-04-10T13:20:55.902Z,19.73
2019-04-10T13:23:25.648Z,20.60
2019-04-10T13:26:01.014Z,20.92
2019-04-10T13:28:29.762Z,20.17
2019-04-10T13:30:59.572Z,19.48
2019-04-10T13:33:29.245Z,19.82
2019-04-10T13:35:59.543Z,20.05
2019-04-10T13:38:33.505Z,19.59
2019-04-10T13:41:03.965Z,20.12
2019-04-10T13:43:34.020Z,21.18
2019-04-10T13:46:04.592Z,22.36
2019-04-10T13:48:35.504Z,22.35
2019-04-10T13:51:05.419Z,22.91
2019-04-10T13:53:34.995Z,22.95
2019-04-10T13:56:06.612Z,22.26
2019-04-10T13:58:36.342Z,22.04
2019-04-10T14:01:09.337Z,21.39
2019-04-10T14:03:41.523Z,21.00
2019-04-10T14:06:11.592Z,20.82
2019-04-10T14:09:01.787Z,20.16
2019-04-10T14:11:13.260Z,20.46
2019-04-10T14:13:46.255Z,20.40
2019-04-10T14:16:16.944Z,21.01
2019-04-10T14:18:46.930Z,22.20
2019-04-10T14:21:17.302Z,22.72
2019-04-10T14:23:47.258Z,21.79
2019-04-10T14:26:42.128Z,21.29
2019-04-10T14:29:05.201Z,22.67
2019-04-10T14:31:36.776Z,23.18
2019-04-10T14:34:06.664Z,24.20
2019-04-10T14:36:36.676Z,24.73
2019-04-10T14:39:18.411Z,25.12
2019-04-10T14:41:46.411Z,25.36
2019-04-10T14:44:16.255Z,25.64
2019-04-10T14:46:49.646Z,25.77
2019-04-10T14:49:19.514Z,25.51
2019-04-10T14:51:49.134Z,24.42
2019-04-10T14:54:19.621Z,24.22
2019-04-10T14:56:50.415Z,24.00
2019-04-10T14:59:20.312Z,23.48
2019-04-10T15:01:51.260Z,23.37
2019-04-10T15:04:21.403Z,24.42
2019-04-10T15:06:51.162Z,25.08
2019-04-10T15:09:25.951Z,25.93
2019-04-10T15:11:53.872Z,26.09
2019-04-10T15:14:23.824Z,26.09
2019-04-10T15:16:59.964Z,25.45
2019-04-10T15:19:26.886Z,25.76
2019-04-10T15:21:56.758Z,25.85
2019-04-10T15:24:26.396Z,26.48
2019-04-10T15:26:57.092Z,26.83
2019-04-10T15:29:26.762Z,26.63
2019-04-10T15:31:57.625Z,27.85
2019-04-10T15:34:28.257Z,28.99
2019-04-10T15:36:58.523Z,29.11
2019-04-10T15:39:33.913Z,29.83
2019-04-10T15:41:59.711Z,30.04
2019-04-10T15:44:30.098Z,29.57
2019-04-10T15:47:12.600Z,29.59
2019-04-10T15:49:32.435Z,30.00
2019-04-10T15:52:02.210Z,29.90
2019-04-10T15:54:32.149Z,30.37
2019-04-10T15:57:02.674Z,29.67
2019-04-10T15:59:32.556Z,30.32
2019-04-10T16:02:05.719Z,30.17
2019-04-10T16:04:35.867Z,29.56
2019-04-10T16:07:06.348Z,29.76
2019-04-10T16:09:45.469Z,29.37
2019-04-10T16:12:11.711Z,29.25
2019-04-10T16:14:41.239Z,29.45
2019-04-10T16:17:29.391Z,29.56
2019-04-10T16:19:59.781Z,29.43
2019-04-10T16:22:35.263Z,29.88
2019-04-10T16:25:11.635Z,29.95
2019-04-10T16:27:41.588Z,30.11
2019-04-10T16:30:14.448Z,29.86
2019-04-10T16:32:44.783Z,29.33
2019-04-10T16:35:15.730Z,29.29
2019-04-10T16:37:45.886Z,29.66
2019-04-10T16:40:18.543Z,30.02
2019-04-10T16:42:48.784Z,30.21
2019-04-10T16:45:18.647Z,30.55
2019-04-10T16:47:50.926Z,30.67
2019-04-10T16:50:21.563Z,30.77
2019-04-10T16:52:53.570Z,31.61
2019-04-10T16:55:24.796Z,33.13
2019-04-10T16:57:55.686Z,33.71
2019-04-10T17:00:26.922Z,34.45
2019-04-10T17:02:57.488Z,34.41
2019-04-10T17:05:28.207Z,34.13
2019-04-10T17:07:59.315Z,34.12
2019-04-10T17:10:30.328Z,34.38
2019-04-10T17:13:00.296Z,34.44
2019-04-10T17:15:30.247Z,34.58
2019-04-10T17:18:00.960Z,34.51
2019-04-10T17:20:31.042Z,34.62
2019-04-10T17:23:02.440Z,34.31
2019-04-10T17:25:33.989Z,34.73
2019-04-10T17:28:04.495Z,34.84
2019-04-10T17:30:34.216Z,34.98
2019-04-10T17:33:04.830Z,35.51
2019-04-10T17:35:37.986Z,35.70
2019-04-10T17:38:07.593Z,35.85
2019-04-10T17:40:45.828Z,35.88
2019-04-10T17:43:08.749Z,35.90
2019-04-10T17:45:38.812Z,35.83
2019-04-10T17:48:09.512Z,35.87
2019-04-10T17:50:41.679Z,36.35
2019-04-10T17:53:11.631Z,36.25
2019-04-10T17:55:44.046Z,36.72
2019-04-10T17:58:13.923Z,36.56
2019-04-10T18:00:45.655Z,36.48
2019-04-10T18:03:18.401Z,37.11
2019-04-10T18:05:46.878Z,37.58
2019-04-10T18:08:16.780Z,37.55
2019-04-10T18:10:52.638Z,38.24
2019-04-10T18:13:20.919Z,39.16
2019-04-10T18:15:50.659Z,38.94
2019-04-10T18:18:20.242Z,39.87
2019-04-10T18:20:51.040Z,39.95
2019-04-10T18:23:20.633Z,40.78
2019-04-10T18:25:50.226Z,40.79
2019-04-10T18:28:19.804Z,41.37
2019-04-10T18:30:49.865Z,41.51
2019-04-10T18:33:24.562Z,41.42
2019-04-10T18:35:55.346Z,41.17
2019-04-10T18:38:25.802Z,41.78
2019-04-10T18:41:01.995Z,41.82
2019-04-10T18:43:28.317Z,41.66
2019-04-10T18:46:08.824Z,41.46
2019-04-10T18:48:30.401Z,42.07
2019-04-10T18:51:01.475Z,42.37
2019-04-10T18:53:31.180Z,42.47
2019-04-10T18:56:00.853Z,42.60
2019-04-10T18:58:32.002Z,42.53
2019-04-10T19:01:03.314Z,42.44
2019-04-10T19:03:46.270Z,42.64
2019-04-10T19:06:12.056Z,42.30
2019-04-10T19:08:42.246Z,42.30
2019-04-10T19:11:20.948Z,43.12
2019-04-10T19:13:43.122Z,43.21
2019-04-10T19:16:13.723Z,42.79
2019-04-10T19:18:47.892Z,43.33
2019-04-10T19:21:17.939Z,43.75
2019-04-10T19:23:47.913Z,43.57
2019-04-10T19:26:19.178Z,43.45
2019-04-10T19:28:48.871Z,43.76
2019-04-10T19:31:23.019Z,44.06
2019-04-10T19:33:51.782Z,44.88
2019-04-10T19:36:21.362Z,44.76
2019-04-10T19:38:51.761Z,44.49
2019-04-10T19:41:28.049Z,44.88
2019-04-10T19:43:52.749Z,44.91
2019-04-10T19:46:23.726Z,44.56
2019-04-10T19:48:53.988Z,44.96
2019-04-10T19:51:24.000Z,44.99
2019-04-10T19:53:53.532Z,45.79
2019-04-10T19:56:23.154Z,45.59
2019-04-10T19:58:52.700Z,46.27
2019-04-10T20:01:24.532Z,46.37
2019-04-10T20:03:54.235Z,46.48
2019-04-10T20:06:25.224Z,46.44
2019-04-10T20:08:55.787Z,46.87
2019-04-10T20:11:33.898Z,46.97
2019-04-10T20:13:59.991Z,46.99
2019-04-10T20:16:28.533Z,47.45
2019-04-10T20:18:59.197Z,47.46
2019-04-10T20:21:30.012Z,47.36
2019-04-10T20:24:00.595Z,47.23
2019-04-10T20:26:31.500Z,47.23
2019-04-10T20:29:02.340Z,47.22
2019-04-10T20:31:33.885Z,47.69
2019-04-10T20:34:03.667Z,48.41
2019-04-10T20:36:33.612Z,48.40
2019-04-10T20:39:03.802Z,48.39
2019-04-10T20:41:46.082Z,48.79
2019-04-10T20:44:07.206Z,48.66
2019-04-10T20:46:38.217Z,48.79
2019-04-10T20:49:08.523Z,48.90
2019-04-10T20:51:38.502Z,48.74
2019-04-10T20:54:08.626Z,49.22
2019-04-10T20:56:40.951Z,49.65
2019-04-10T20:59:10.075Z,49.79
2019-04-10T21:01:39.613Z,49.76
2019-04-10T21:04:09.473Z,49.94
2019-04-10T21:06:41.827Z,50.40
2019-04-10T21:09:11.729Z,50.26
2019-04-10T21:11:41.886Z,50.14
2019-04-10T21:14:12.609Z,50.41
2019-04-10T21:16:44.212Z,50.14
2019-04-10T21:19:13.910Z,50.82
2019-04-10T21:21:43.591Z,50.63
2019-04-10T21:24:13.423Z,50.72
2019-04-10T21:26:44.875Z,50.54
2019-04-10T21:29:16.363Z,50.59
2019-04-10T21:31:59.717Z,51.11
2019-04-10T21:34:31.049Z,51.28
2019-04-10T21:37:01.677Z,51.44
2019-04-10T21:39:31.838Z,51.43
2019-04-10T21:42:11.980Z,51.62
2019-04-10T21:44:33.215Z,51.68
2019-04-10T21:47:05.420Z,51.38
2019-04-10T21:49:36.008Z,51.75
2019-04-10T21:52:05.892Z,52.05
2019-04-10T21:54:35.440Z,51.64
2019-04-10T21:57:05.417Z,52.36
2019-04-10T21:59:35.048Z,52.21
2019-04-10T22:02:04.945Z,52.11
2019-04-10T22:04:35.050Z,51.84
2019-04-10T22:07:23.701Z,51.82
2019-04-10T22:10:12.018Z,51.54
2019-04-10T22:12:47.132Z,52.29
2019-04-10T22:15:15.254Z,52.19
2019-04-10T22:17:44.830Z,52.47
2019-04-10T22:20:15.165Z,51.84
2019-04-10T22:22:45.061Z,52.02
2019-04-10T22:25:15.171Z,51.52
2019-04-10T22:27:46.351Z,52.15
2019-04-10T22:30:16.912Z,52.08
2019-04-10T22:32:47.136Z,52.25
2019-04-10T22:35:17.477Z,52.32
2019-04-10T22:37:48.248Z,52.23
2019-04-10T22:40:17.851Z,52.37
2019-04-10T22:42:48.637Z,52.07
2019-04-10T22:45:29.230Z,51.93
2019-04-10T22:48:00.748Z,51.64
2019-04-10T22:50:31.174Z,52.00
2019-04-10T22:53:01.374Z,51.83
2019-04-10T22:55:31.797Z,51.37
2019-04-10T22:58:02.555Z,51.89
2019-04-10T23:00:33.001Z,51.64
2019-04-10T23:03:03.438Z,51.22
2019-04-10T23:05:34.318Z,51.22
2019-04-10T23:08:04.154Z,51.69
2019-04-10T23:10:33.821Z,51.21
2019-04-10T23:13:05.580Z,50.97
2019-04-10T23:15:35.655Z,50.99
2019-04-10T23:18:07.462Z,50.76
2019-04-10T23:20:37.341Z,50.62
2019-04-10T23:23:06.936Z,50.90
2019-04-10T23:25:36.584Z,50.89
2019-04-10T23:28:07.325Z,51.20
2019-04-10T23:30:37.316Z,51.18
2019-04-10T23:33:07.947Z,51.47
2019-04-10T23:35:37.974Z,50.99
2019-04-10T23:38:09.152Z,51.14
2019-04-10T23:40:38.987Z,50.83
2019-04-10T23:43:13.519Z,50.78
2019-04-10T23:45:39.836Z,50.57
2019-04-10T23:48:09.380Z,50.67
2019-04-10T23:50:38.902Z,50.60
2019-04-10T23:53:08.668Z,50.38
2019-04-10T23:55:38.542Z,49.93
2019-04-10T23:58:08.056Z,48.96
